sensor_id;sensor_type;location;lat;lon;timestamp;temperature;humidity
7204;DHT22;3643;52.460;13.322;2022-07-05T00:02:15;16.90;96.60
7204;DHT22;3643;52.460;13.322;2022-07-05T00:04:43;16.80;96.80
7204;DHT22;3643;52.460;13.322;2022-07-05T00:07:13;16.80;97.10
7204;DHT22;3643;52.460;13.322;2022-07-05T00:09:49;16.70;97.20
7204;DHT22;3643;52.460;13.322;2022-07-05T00:12:22;16.70;97.30
7204;DHT22;3643;52.460;13.322;2022-07-05T00:14:51;16.70;97.50
7204;DHT22;3643;52.460;13.322;2022-07-05T00:17:20;16.70;97.40
7204;DHT22;3643;52.460;13.322;2022-07-05T00:19:48;16.70;97.40
7204;DHT22;3643;52.460;13.322;2022-07-05T00:22:18;16.70;97.30
7204;DHT22;3643;52.460;13.322;2022-07-05T00:24:46;16.60;97.30
7204;DHT22;3643;52.460;13.322;2022-07-05T00:27:14;16.90;97.30
7204;DHT22;3643;52.460;13.322;2022-07-05T00:29:44;16.60;97.10
7204;DHT22;3643;52.460;13.322;2022-07-05T00:32:13;16.60;97.20
7204;DHT22;3643;52.460;13.322;2022-07-05T00:34:42;16.60;97.20
7204;DHT22;3643;52.460;13.322;2022-07-05T00:37:11;16.50;97.10
7204;DHT22;3643;52.460;13.322;2022-07-05T00:39:40;16.40;97.00
7204;DHT22;3643;52.460;13.322;2022-07-05T00:42:09;16.50;97.10
7204;DHT22;3643;52.460;13.322;2022-07-05T00:44:39;16.50;97.10
7204;DHT22;3643;52.460;13.322;2022-07-05T00:47:11;16.50;97.20
7204;DHT22;3643;52.460;13.322;2022-07-05T00:49:41;16.50;97.20
7204;DHT22;3643;52.460;13.322;2022-07-05T00:52:11;16.50;97.30
7204;DHT22;3643;52.460;13.322;2022-07-05T00:54:48;16.50;97.30
7204;DHT22;3643;52.460;13.322;2022-07-05T00:57:19;16.40;97.50
7204;DHT22;3643;52.460;13.322;2022-07-05T00:59:48;16.40;97.70
7204;DHT22;3643;52.460;13.322;2022-07-05T01:02:18;16.40;98.00
7204;DHT22;3643;52.460;13.322;2022-07-05T01:04:50;16.40;98.30
7204;DHT22;3643;52.460;13.322;2022-07-05T01:07:21;16.30;98.70
7204;DHT22;3643;52.460;13.322;2022-07-05T01:09:51;16.30;99.20
7204;DHT22;3643;52.460;13.322;2022-07-05T01:12:19;16.30;99.60
7204;DHT22;3643;52.460;13.322;2022-07-05T01:14:48;16.30;99.90
7204;DHT22;3643;52.460;13.322;2022-07-05T01:17:18;16.20;99.90
7204;DHT22;3643;52.460;13.322;2022-07-05T01:19:47;16.20;99.90
7204;DHT22;3643;52.460;13.322;2022-07-05T01:22:18;16.20;99.90
7204;DHT22;3643;52.460;13.322;2022-07-05T01:24:49;16.20;99.90
7204;DHT22;3643;52.460;13.322;2022-07-05T01:27:19;16.20;99.90
7204;DHT22;3643;52.460;13.322;2022-07-05T01:29:48;16.20;99.90
7204;DHT22;3643;52.460;13.322;2022-07-05T01:32:19;16.10;99.90
7204;DHT22;3643;52.460;13.322;2022-07-05T01:34:48;16.10;99.90
7204;DHT22;3643;52.460;13.322;2022-07-05T01:37:17;16.10;99.90
7204;DHT22;3643;52.460;13.322;2022-07-05T01:39:46;16.10;99.90
7204;DHT22;3643;52.460;13.322;2022-07-05T01:42:15;16.00;99.90
7204;DHT22;3643;52.460;13.322;2022-07-05T01:44:44;16.00;99.90
7204;DHT22;3643;52.460;13.322;2022-07-05T01:47:13;16.00;99.90
7204;DHT22;3643;52.460;13.322;2022-07-05T01:49:46;15.90;99.90
7204;DHT22;3643;52.460;13.322;2022-07-05T01:52:18;15.90;99.90
7204;DHT22;3643;52.460;13.322;2022-07-05T01:54:48;15.90;99.90
7204;DHT22;3643;52.460;13.322;2022-07-05T01:57:18;15.90;99.90
7204;DHT22;3643;52.460;13.322;2022-07-05T01:59:48;15.80;99.90
7204;DHT22;3643;52.460;13.322;2022-07-05T02:02:17;15.80;99.90
7204;DHT22;3643;52.460;13.322;2022-07-05T02:04:47;15.90;99.90
7204;DHT22;3643;52.460;13.322;2022-07-05T02:07:16;15.80;99.90
7204;DHT22;3643;52.460;13.322;2022-07-05T02:09:44;15.80;99.90
7204;DHT22;3643;52.460;13.322;2022-07-05T02:12:13;15.80;99.90
7204;DHT22;3643;52.460;13.322;2022-07-05T02:14:43;15.80;99.90
7204;DHT22;3643;52.460;13.322;2022-07-05T02:17:12;15.80;99.90
7204;DHT22;3643;52.460;13.322;2022-07-05T02:19:41;15.80;99.90
7204;DHT22;3643;52.460;13.322;2022-07-05T02:22:09;15.80;99.90
7204;DHT22;3643;52.460;13.322;2022-07-05T02:24:38;15.80;99.90
7204;DHT22;3643;52.460;13.322;2022-07-05T02:27:07;15.90;99.90
7204;DHT22;3643;52.460;13.322;2022-07-05T02:29:36;15.90;99.90
7204;DHT22;3643;52.460;13.322;2022-07-05T02:32:06;15.90;99.90
7204;DHT22;3643;52.460;13.322;2022-07-05T02:34:35;16.00;99.90
7204;DHT22;3643;52.460;13.322;2022-07-05T02:37:04;16.00;99.90
7204;DHT22;3643;52.460;13.322;2022-07-05T02:39:35;15.90;99.90
7204;DHT22;3643;52.460;13.322;2022-07-05T02:42:04;15.90;99.90
7204;DHT22;3643;52.460;13.322;2022-07-05T02:44:33;15.90;99.90
7204;DHT22;3643;52.460;13.322;2022-07-05T02:47:02;16.00;99.90
7204;DHT22;3643;52.460;13.322;2022-07-05T02:49:32;16.00;99.90
7204;DHT22;3643;52.460;13.322;2022-07-05T02:52:00;16.00;99.90
7204;DHT22;3643;52.460;13.322;2022-07-05T02:54:29;16.00;99.90
7204;DHT22;3643;52.460;13.322;2022-07-05T02:56:58;16.10;99.90
7204;DHT22;3643;52.460;13.322;2022-07-05T02:59:26;16.00;99.90
7204;DHT22;3643;52.460;13.322;2022-07-05T03:01:55;16.10;99.90
7204;DHT22;3643;52.460;13.322;2022-07-05T03:04:23;16.10;99.90
7204;DHT22;3643;52.460;13.322;2022-07-05T03:06:54;16.10;99.90
7204;DHT22;3643;52.460;13.322;2022-07-05T03:09:22;16.10;99.90
7204;DHT22;3643;52.460;13.322;2022-07-05T03:11:51;16.20;99.90
7204;DHT22;3643;52.460;13.322;2022-07-05T03:14:19;16.20;99.90
7204;DHT22;3643;52.460;13.322;2022-07-05T03:16:48;16.20;99.90
7204;DHT22;3643;52.460;13.322;2022-07-05T03:19:16;16.30;99.90
7204;DHT22;3643;52.460;13.322;2022-07-05T03:21:45;16.40;99.90
7204;DHT22;3643;52.460;13.322;2022-07-05T03:24:15;16.40;99.90
7204;DHT22;3643;52.460;13.322;2022-07-05T03:26:44;16.30;99.90
7204;DHT22;3643;52.460;13.322;2022-07-05T03:29:12;16.30;99.90
7204;DHT22;3643;52.460;13.322;2022-07-05T03:31:41;16.30;99.90
7204;DHT22;3643;52.460;13.322;2022-07-05T03:34:09;16.40;99.90
7204;DHT22;3643;52.460;13.322;2022-07-05T03:36:38;16.40;99.90
7204;DHT22;3643;52.460;13.322;2022-07-05T03:39:07;16.40;99.90
7204;DHT22;3643;52.460;13.322;2022-07-05T03:41:37;16.40;99.90
7204;DHT22;3643;52.460;13.322;2022-07-05T03:44:06;16.40;99.90
7204;DHT22;3643;52.460;13.322;2022-07-05T03:46:37;16.50;99.90
7204;DHT22;3643;52.460;13.322;2022-07-05T03:49:05;16.50;99.90
7204;DHT22;3643;52.460;13.322;2022-07-05T03:51:34;16.60;99.90
7204;DHT22;3643;52.460;13.322;2022-07-05T03:54:03;16.60;99.90
7204;DHT22;3643;52.460;13.322;2022-07-05T03:56:32;16.60;99.90
7204;DHT22;3643;52.460;13.322;2022-07-05T03:59:02;16.70;99.90
7204;DHT22;3643;52.460;13.322;2022-07-05T04:01:30;16.70;99.90
7204;DHT22;3643;52.460;13.322;2022-07-05T04:03:59;16.80;99.90
7204;DHT22;3643;52.460;13.322;2022-07-05T04:06:28;16.90;99.90
7204;DHT22;3643;52.460;13.322;2022-07-05T04:08:56;17.00;99.90
7204;DHT22;3643;52.460;13.322;2022-07-05T04:11:25;17.00;99.90
7204;DHT22;3643;52.460;13.322;2022-07-05T04:13:53;17.20;99.90
7204;DHT22;3643;52.460;13.322;2022-07-05T04:16:24;17.20;99.90
7204;DHT22;3643;52.460;13.322;2022-07-05T04:18:53;17.20;99.90
7204;DHT22;3643;52.460;13.322;2022-07-05T04:21:21;17.20;99.90
7204;DHT22;3643;52.460;13.322;2022-07-05T04:23:50;17.20;99.90
7204;DHT22;3643;52.460;13.322;2022-07-05T04:26:18;17.30;99.90
7204;DHT22;3643;52.460;13.322;2022-07-05T04:28:47;17.30;99.90
7204;DHT22;3643;52.460;13.322;2022-07-05T04:31:21;17.40;99.90
7204;DHT22;3643;52.460;13.322;2022-07-05T04:33:51;17.50;99.90
7204;DHT22;3643;52.460;13.322;2022-07-05T04:36:19;17.60;99.90
7204;DHT22;3643;52.460;13.322;2022-07-05T04:38:48;17.70;99.90
7204;DHT22;3643;52.460;13.322;2022-07-05T04:41:16;17.80;99.90
7204;DHT22;3643;52.460;13.322;2022-07-05T04:43:44;17.90;99.90
7204;DHT22;3643;52.460;13.322;2022-07-05T04:46:13;17.90;99.90
7204;DHT22;3643;52.460;13.322;2022-07-05T04:48:42;18.00;99.90
7204;DHT22;3643;52.460;13.322;2022-07-05T04:51:11;18.10;99.90
7204;DHT22;3643;52.460;13.322;2022-07-05T04:53:40;18.10;99.90
7204;DHT22;3643;52.460;13.322;2022-07-05T04:56:09;18.20;99.90
7204;DHT22;3643;52.460;13.322;2022-07-05T04:58:37;18.30;99.90
7204;DHT22;3643;52.460;13.322;2022-07-05T05:01:06;18.40;99.70
7204;DHT22;3643;52.460;13.322;2022-07-05T05:03:34;18.60;99.40
7204;DHT22;3643;52.460;13.322;2022-07-05T05:06:03;18.60;98.80
7204;DHT22;3643;52.460;13.322;2022-07-05T05:08:33;18.90;99.00
7204;DHT22;3643;52.460;13.322;2022-07-05T05:11:01;19.80;97.90
7204;DHT22;3643;52.460;13.322;2022-07-05T05:13:30;21.40;95.30
7204;DHT22;3643;52.460;13.322;2022-07-05T05:15:58;22.90;93.50
7204;DHT22;3643;52.460;13.322;2022-07-05T05:18:27;24.20;92.10
7204;DHT22;3643;52.460;13.322;2022-07-05T05:20:55;24.80;91.10
7204;DHT22;3643;52.460;13.322;2022-07-05T05:23:24;25.80;89.20
7204;DHT22;3643;52.460;13.322;2022-07-05T05:25:54;26.50;87.20
7204;DHT22;3643;52.460;13.322;2022-07-05T05:28:22;26.90;84.90
7204;DHT22;3643;52.460;13.322;2022-07-05T05:30:51;27.30;84.00
7204;DHT22;3643;52.460;13.322;2022-07-05T05:33:19;27.80;83.50
7204;DHT22;3643;52.460;13.322;2022-07-05T05:35:54;28.50;80.90
7204;DHT22;3643;52.460;13.322;2022-07-05T05:38:22;28.90;80.60
7204;DHT22;3643;52.460;13.322;2022-07-05T05:40:51;28.70;79.70
7204;DHT22;3643;52.460;13.322;2022-07-05T05:43:21;28.90;79.10
7204;DHT22;3643;52.460;13.322;2022-07-05T05:45:50;29.10;78.00
7204;DHT22;3643;52.460;13.322;2022-07-05T05:48:18;29.30;78.40
7204;DHT22;3643;52.460;13.322;2022-07-05T05:50:48;29.50;77.80
7204;DHT22;3643;52.460;13.322;2022-07-05T05:53:18;30.20;77.20
7204;DHT22;3643;52.460;13.322;2022-07-05T05:55:47;30.30;76.00
7204;DHT22;3643;52.460;13.322;2022-07-05T05:58:17;30.80;75.20
7204;DHT22;3643;52.460;13.322;2022-07-05T06:00:49;30.90;75.00
7204;DHT22;3643;52.460;13.322;2022-07-05T06:03:20;31.10;73.50
7204;DHT22;3643;52.460;13.322;2022-07-05T06:05:49;30.20;74.80
7204;DHT22;3643;52.460;13.322;2022-07-05T06:08:18;30.50;74.80
7204;DHT22;3643;52.460;13.322;2022-07-05T06:10:46;31.10;73.40
7204;DHT22;3643;52.460;13.322;2022-07-05T06:13:25;29.10;75.00
7204;DHT22;3643;52.460;13.322;2022-07-05T06:15:57;29.30;76.50
7204;DHT22;3643;52.460;13.322;2022-07-05T06:18:26;30.60;75.20
7204;DHT22;3643;52.460;13.322;2022-07-05T06:20:55;31.90;73.80
7204;DHT22;3643;52.460;13.322;2022-07-05T06:23:23;32.20;71.60
7204;DHT22;3643;52.460;13.322;2022-07-05T06:25:51;32.40;72.30
7204;DHT22;3643;52.460;13.322;2022-07-05T06:28:20;33.10;71.80
7204;DHT22;3643;52.460;13.322;2022-07-05T06:30:48;33.70;70.50
7204;DHT22;3643;52.460;13.322;2022-07-05T06:33:19;33.80;70.10
7204;DHT22;3643;52.460;13.322;2022-07-05T06:35:47;34.00;70.20
7204;DHT22;3643;52.460;13.322;2022-07-05T06:38:16;33.50;70.00
7204;DHT22;3643;52.460;13.322;2022-07-05T06:40:44;33.40;69.40
7204;DHT22;3643;52.460;13.322;2022-07-05T06:43:13;32.90;69.50
7204;DHT22;3643;52.460;13.322;2022-07-05T06:45:42;32.70;70.70
7204;DHT22;3643;52.460;13.322;2022-07-05T06:48:11;32.70;71.00
7204;DHT22;3643;52.460;13.322;2022-07-05T06:50:42;33.90;69.60
7204;DHT22;3643;52.460;13.322;2022-07-05T06:53:11;34.00;70.20
7204;DHT22;3643;52.460;13.322;2022-07-05T06:55:40;33.40;69.00
7204;DHT22;3643;52.460;13.322;2022-07-05T06:58:21;33.30;70.40
7204;DHT22;3643;52.460;13.322;2022-07-05T07:00:49;33.40;70.00
7204;DHT22;3643;52.460;13.322;2022-07-05T07:03:38;33.90;70.10
7204;DHT22;3643;52.460;13.322;2022-07-05T07:06:28;34.90;69.50
7204;DHT22;3643;52.460;13.322;2022-07-05T07:08:57;35.60;68.30
7204;DHT22;3643;52.460;13.322;2022-07-05T07:11:43;35.90;67.50
7204;DHT22;3643;52.460;13.322;2022-07-05T07:14:12;35.50;67.00
7204;DHT22;3643;52.460;13.322;2022-07-05T07:16:41;35.00;67.00
7204;DHT22;3643;52.460;13.322;2022-07-05T07:19:10;35.00;66.60
7204;DHT22;3643;52.460;13.322;2022-07-05T07:21:43;34.50;66.80
7204;DHT22;3643;52.460;13.322;2022-07-05T07:24:11;35.20;67.00
7204;DHT22;3643;52.460;13.322;2022-07-05T07:26:40;35.90;65.90
7204;DHT22;3643;52.460;13.322;2022-07-05T07:29:27;36.60;64.60
7204;DHT22;3643;52.460;13.322;2022-07-05T07:31:56;35.80;64.40
7204;DHT22;3643;52.460;13.322;2022-07-05T07:34:26;36.10;64.60
7204;DHT22;3643;52.460;13.322;2022-07-05T07:36:56;36.00;63.90
7204;DHT22;3643;52.460;13.322;2022-07-05T07:39:25;36.00;63.90
7204;DHT22;3643;52.460;13.322;2022-07-05T07:41:53;36.40;63.80
7204;DHT22;3643;52.460;13.322;2022-07-05T07:44:22;36.40;63.80
7204;DHT22;3643;52.460;13.322;2022-07-05T07:46:50;36.70;63.50
7204;DHT22;3643;52.460;13.322;2022-07-05T07:49:19;35.70;63.90
7204;DHT22;3643;52.460;13.322;2022-07-05T07:51:47;35.60;64.50
7204;DHT22;3643;52.460;13.322;2022-07-05T07:54:18;35.50;64.10
7204;DHT22;3643;52.460;13.322;2022-07-05T07:56:46;35.50;63.90
7204;DHT22;3643;52.460;13.322;2022-07-05T07:59:15;35.00;63.80
7204;DHT22;3643;52.460;13.322;2022-07-05T08:01:43;34.80;64.20
7204;DHT22;3643;52.460;13.322;2022-07-05T08:04:13;34.80;64.30
7204;DHT22;3643;52.460;13.322;2022-07-05T08:06:43;35.10;64.20
7204;DHT22;3643;52.460;13.322;2022-07-05T08:09:12;35.40;64.10
7204;DHT22;3643;52.460;13.322;2022-07-05T08:11:46;35.60;64.50
7204;DHT22;3643;52.460;13.322;2022-07-05T08:14:18;36.10;64.00
7204;DHT22;3643;52.460;13.322;2022-07-05T08:16:47;35.20;62.90
7204;DHT22;3643;52.460;13.322;2022-07-05T08:19:19;34.60;64.60
7204;DHT22;3643;52.460;13.322;2022-07-05T08:22:06;35.00;64.10
7204;DHT22;3643;52.460;13.322;2022-07-05T08:24:37;35.40;63.80
7204;DHT22;3643;52.460;13.322;2022-07-05T08:27:08;35.40;63.70
7204;DHT22;3643;52.460;13.322;2022-07-05T08:29:37;35.40;63.60
7204;DHT22;3643;52.460;13.322;2022-07-05T08:32:07;35.50;63.70
7204;DHT22;3643;52.460;13.322;2022-07-05T08:34:36;34.90;63.70
7204;DHT22;3643;52.460;13.322;2022-07-05T08:37:06;34.70;63.50
7204;DHT22;3643;52.460;13.322;2022-07-05T08:39:41;34.30;64.30
7204;DHT22;3643;52.460;13.322;2022-07-05T08:42:11;34.30;64.60
7204;DHT22;3643;52.460;13.322;2022-07-05T08:44:42;34.60;63.90
7204;DHT22;3643;52.460;13.322;2022-07-05T08:47:12;34.70;63.60
7204;DHT22;3643;52.460;13.322;2022-07-05T08:49:43;34.00;63.90
7204;DHT22;3643;52.460;13.322;2022-07-05T08:52:13;33.90;64.90
7204;DHT22;3643;52.460;13.322;2022-07-05T08:54:44;34.00;63.70
7204;DHT22;3643;52.460;13.322;2022-07-05T08:57:16;34.10;64.80
7204;DHT22;3643;52.460;13.322;2022-07-05T08:59:44;33.70;64.50
7204;DHT22;3643;52.460;13.322;2022-07-05T09:02:16;33.20;64.80
7204;DHT22;3643;52.460;13.322;2022-07-05T09:04:46;32.30;66.10
7204;DHT22;3643;52.460;13.322;2022-07-05T09:07:20;31.40;66.90
7204;DHT22;3643;52.460;13.322;2022-07-05T09:09:52;30.00;69.10
7204;DHT22;3643;52.460;13.322;2022-07-05T09:12:22;29.30;69.70
7204;DHT22;3643;52.460;13.322;2022-07-05T09:14:54;28.50;70.30
7204;DHT22;3643;52.460;13.322;2022-07-05T09:17:24;27.40;71.70
7204;DHT22;3643;52.460;13.322;2022-07-05T09:20:11;26.60;74.60
7204;DHT22;3643;52.460;13.322;2022-07-05T09:22:48;26.40;75.30
7204;DHT22;3643;52.460;13.322;2022-07-05T09:25:22;26.30;75.70
7204;DHT22;3643;52.460;13.322;2022-07-05T09:27:54;26.00;75.40
7204;DHT22;3643;52.460;13.322;2022-07-05T09:30:28;25.60;76.50
7204;DHT22;3643;52.460;13.322;2022-07-05T09:33:06;25.50;77.20
7204;DHT22;3643;52.460;13.322;2022-07-05T09:35:37;25.40;77.30
7204;DHT22;3643;52.460;13.322;2022-07-05T09:38:17;25.10;77.10
7204;DHT22;3643;52.460;13.322;2022-07-05T09:40:48;24.80;78.00
7204;DHT22;3643;52.460;13.322;2022-07-05T09:43:19;24.60;78.80
7204;DHT22;3643;52.460;13.322;2022-07-05T09:45:55;24.60;78.60
7204;DHT22;3643;52.460;13.322;2022-07-05T09:48:25;24.60;79.40
7204;DHT22;3643;52.460;13.322;2022-07-05T09:51:06;24.80;79.20
7204;DHT22;3643;52.460;13.322;2022-07-05T09:53:56;24.50;79.80
7204;DHT22;3643;52.460;13.322;2022-07-05T09:56:28;24.50;79.30
7204;DHT22;3643;52.460;13.322;2022-07-05T09:59:17;24.60;79.50
7204;DHT22;3643;52.460;13.322;2022-07-05T10:01:48;24.70;79.50
7204;DHT22;3643;52.460;13.322;2022-07-05T10:04:18;24.90;79.70
7204;DHT22;3643;52.460;13.322;2022-07-05T10:06:47;25.10;79.70
7204;DHT22;3643;52.460;13.322;2022-07-05T10:09:16;25.00;79.50
7204;DHT22;3643;52.460;13.322;2022-07-05T10:11:46;25.00;79.00
7204;DHT22;3643;52.460;13.322;2022-07-05T10:14:19;24.80;79.00
7204;DHT22;3643;52.460;13.322;2022-07-05T10:17:00;24.80;79.60
7204;DHT22;3643;52.460;13.322;2022-07-05T10:19:33;24.90;79.40
7204;DHT22;3643;52.460;13.322;2022-07-05T10:22:05;24.90;79.30
7204;DHT22;3643;52.460;13.322;2022-07-05T10:24:50;24.70;79.40
7204;DHT22;3643;52.460;13.322;2022-07-05T10:27:20;24.80;79.70
7204;DHT22;3643;52.460;13.322;2022-07-05T10:29:55;24.80;79.20
7204;DHT22;3643;52.460;13.322;2022-07-05T10:32:26;24.80;79.10
7204;DHT22;3643;52.460;13.322;2022-07-05T10:34:58;24.80;79.10
7204;DHT22;3643;52.460;13.322;2022-07-05T10:37:28;24.70;79.20
7204;DHT22;3643;52.460;13.322;2022-07-05T10:39:59;24.60;79.80
7204;DHT22;3643;52.460;13.322;2022-07-05T10:42:32;24.60;80.00
7204;DHT22;3643;52.460;13.322;2022-07-05T10:48:20;24.80;78.90
7204;DHT22;3643;52.460;13.322;2022-07-05T10:50:51;24.80;78.40
7204;DHT22;3643;52.460;13.322;2022-07-05T10:53:23;25.00;78.30
7204;DHT22;3643;52.460;13.322;2022-07-05T10:55:56;25.30;78.60
7204;DHT22;3643;52.460;13.322;2022-07-05T10:58:30;25.50;78.40
7204;DHT22;3643;52.460;13.322;2022-07-05T11:04:28;26.00;77.30
7204;DHT22;3643;52.460;13.322;2022-07-05T11:07:02;26.10;77.40
7204;DHT22;3643;52.460;13.322;2022-07-05T11:09:31;26.00;76.90
7204;DHT22;3643;52.460;13.322;2022-07-05T11:12:08;26.00;77.30
7204;DHT22;3643;52.460;13.322;2022-07-05T11:15:05;26.00;77.60
7204;DHT22;3643;52.460;13.322;2022-07-05T11:17:36;25.90;76.50
7204;DHT22;3643;52.460;13.322;2022-07-05T11:20:30;25.90;76.80
7204;DHT22;3643;52.460;13.322;2022-07-05T11:23:11;25.90;75.80
7204;DHT22;3643;52.460;13.322;2022-07-05T11:25:45;26.00;75.60
7204;DHT22;3643;52.460;13.322;2022-07-05T11:28:19;26.30;75.70
7204;DHT22;3643;52.460;13.322;2022-07-05T11:30:56;26.30;75.90
7204;DHT22;3643;52.460;13.322;2022-07-05T11:33:30;26.40;76.40
7204;DHT22;3643;52.460;13.322;2022-07-05T11:36:02;26.40;76.20
7204;DHT22;3643;52.460;13.322;2022-07-05T11:38:31;26.00;76.50
7204;DHT22;3643;52.460;13.322;2022-07-05T11:41:20;25.70;77.40
7204;DHT22;3643;52.460;13.322;2022-07-05T11:43:55;25.40;78.10
7204;DHT22;3643;52.460;13.322;2022-07-05T11:46:25;25.30;77.90
7204;DHT22;3643;52.460;13.322;2022-07-05T11:49:22;25.30;78.10
7204;DHT22;3643;52.460;13.322;2022-07-05T11:51:57;25.40;78.50
7204;DHT22;3643;52.460;13.322;2022-07-05T11:54:27;24.30;76.10
7204;DHT22;3643;52.460;13.322;2022-07-05T11:56:56;25.70;77.10
7204;DHT22;3643;52.460;13.322;2022-07-05T11:59:26;25.70;77.00
7204;DHT22;3643;52.460;13.322;2022-07-05T12:01:55;26.00;77.10
7204;DHT22;3643;52.460;13.322;2022-07-05T12:04:26;25.90;76.20
7204;DHT22;3643;52.460;13.322;2022-07-05T12:06:57;25.90;76.70
7204;DHT22;3643;52.460;13.322;2022-07-05T12:09:28;26.00;76.50
7204;DHT22;3643;52.460;13.322;2022-07-05T12:12:19;26.20;76.40
7204;DHT22;3643;52.460;13.322;2022-07-05T12:15:06;26.40;75.10
7204;DHT22;3643;52.460;13.322;2022-07-05T12:17:36;26.50;75.40
7204;DHT22;3643;52.460;13.322;2022-07-05T12:20:07;26.70;74.60
7204;DHT22;3643;52.460;13.322;2022-07-05T12:22:39;26.70;74.40
7204;DHT22;3643;52.460;13.322;2022-07-05T12:25:12;26.40;74.50
7204;DHT22;3643;52.460;13.322;2022-07-05T12:27:42;26.10;75.10
7204;DHT22;3643;52.460;13.322;2022-07-05T12:30:12;25.70;75.00
7204;DHT22;3643;52.460;13.322;2022-07-05T12:32:54;25.60;75.40
7204;DHT22;3643;52.460;13.322;2022-07-05T12:35:34;25.40;75.20
7204;DHT22;3643;52.460;13.322;2022-07-05T12:38:07;25.50;74.50
7204;DHT22;3643;52.460;13.322;2022-07-05T12:40:37;25.60;75.10
7204;DHT22;3643;52.460;13.322;2022-07-05T12:43:08;25.50;75.40
7204;DHT22;3643;52.460;13.322;2022-07-05T12:45:39;25.30;75.60
7204;DHT22;3643;52.460;13.322;2022-07-05T12:48:09;25.30;75.80
7204;DHT22;3643;52.460;13.322;2022-07-05T12:50:46;25.30;76.00
7204;DHT22;3643;52.460;13.322;2022-07-05T12:53:46;25.40;75.80
7204;DHT22;3643;52.460;13.322;2022-07-05T12:56:32;25.70;74.80
7204;DHT22;3643;52.460;13.322;2022-07-05T12:59:39;25.90;74.40
7204;DHT22;3643;52.460;13.322;2022-07-05T13:02:08;26.20;74.70
7204;DHT22;3643;52.460;13.322;2022-07-05T13:04:52;26.30;74.60
7204;DHT22;3643;52.460;13.322;2022-07-05T13:07:25;26.40;74.30
7204;DHT22;3643;52.460;13.322;2022-07-05T13:10:18;26.30;73.80
7204;DHT22;3643;52.460;13.322;2022-07-05T13:12:48;26.20;74.40
7204;DHT22;3643;52.460;13.322;2022-07-05T13:15:17;26.10;74.50
7204;DHT22;3643;52.460;13.322;2022-07-05T13:17:46;26.10;74.00
7204;DHT22;3643;52.460;13.322;2022-07-05T13:20:17;26.10;74.20
7204;DHT22;3643;52.460;13.322;2022-07-05T13:22:50;26.00;73.70
7204;DHT22;3643;52.460;13.322;2022-07-05T13:25:20;25.90;74.20
7204;DHT22;3643;52.460;13.322;2022-07-05T13:27:48;25.80;74.20
7204;DHT22;3643;52.460;13.322;2022-07-05T13:30:20;25.80;74.30
7204;DHT22;3643;52.460;13.322;2022-07-05T13:32:48;25.90;74.00
7204;DHT22;3643;52.460;13.322;2022-07-05T13:35:17;25.90;73.90
7204;DHT22;3643;52.460;13.322;2022-07-05T13:37:46;26.00;74.30
7204;DHT22;3643;52.460;13.322;2022-07-05T13:40:14;25.90;74.70
7204;DHT22;3643;52.460;13.322;2022-07-05T13:42:44;25.90;74.40
7204;DHT22;3643;52.460;13.322;2022-07-05T13:45:13;26.00;74.60
7204;DHT22;3643;52.460;13.322;2022-07-05T13:47:42;26.10;74.00
7204;DHT22;3643;52.460;13.322;2022-07-05T13:50:10;26.10;74.20
7204;DHT22;3643;52.460;13.322;2022-07-05T13:52:56;26.10;74.40
7204;DHT22;3643;52.460;13.322;2022-07-05T13:55:26;26.00;74.70
7204;DHT22;3643;52.460;13.322;2022-07-05T13:57:56;26.00;74.70
7204;DHT22;3643;52.460;13.322;2022-07-05T14:00:25;25.90;73.70
7204;DHT22;3643;52.460;13.322;2022-07-05T14:02:53;25.60;74.40
7204;DHT22;3643;52.460;13.322;2022-07-05T14:05:30;24.90;74.10
7204;DHT22;3643;52.460;13.322;2022-07-05T14:07:59;25.60;74.20
7204;DHT22;3643;52.460;13.322;2022-07-05T14:10:28;25.60;74.80
7204;DHT22;3643;52.460;13.322;2022-07-05T14:12:58;25.60;74.30
7204;DHT22;3643;52.460;13.322;2022-07-05T14:15:26;25.50;74.60
7204;DHT22;3643;52.460;13.322;2022-07-05T14:17:55;25.70;74.90
7204;DHT22;3643;52.460;13.322;2022-07-05T14:20:27;25.70;74.70
7204;DHT22;3643;52.460;13.322;2022-07-05T14:22:55;25.80;74.70
7204;DHT22;3643;52.460;13.322;2022-07-05T14:25:24;25.90;74.50
7204;DHT22;3643;52.460;13.322;2022-07-05T14:27:53;26.10;73.10
7204;DHT22;3643;52.460;13.322;2022-07-05T14:30:23;26.00;73.70
7204;DHT22;3643;52.460;13.322;2022-07-05T14:32:53;26.00;73.40
7204;DHT22;3643;52.460;13.322;2022-07-05T14:35:22;26.20;72.90
7204;DHT22;3643;52.460;13.322;2022-07-05T14:37:51;26.30;73.30
7204;DHT22;3643;52.460;13.322;2022-07-05T14:40:19;26.30;73.30
7204;DHT22;3643;52.460;13.322;2022-07-05T14:42:50;26.30;73.00
7204;DHT22;3643;52.460;13.322;2022-07-05T14:45:19;26.20;72.90
7204;DHT22;3643;52.460;13.322;2022-07-05T14:47:56;26.30;72.80
7204;DHT22;3643;52.460;13.322;2022-07-05T14:50:25;26.20;73.30
7204;DHT22;3643;52.460;13.322;2022-07-05T14:52:53;26.20;73.00
7204;DHT22;3643;52.460;13.322;2022-07-05T14:55:22;26.30;73.50
7204;DHT22;3643;52.460;13.322;2022-07-05T14:57:51;26.50;73.00
7204;DHT22;3643;52.460;13.322;2022-07-05T15:00:20;26.60;72.70
7204;DHT22;3643;52.460;13.322;2022-07-05T15:02:48;26.40;72.80
7204;DHT22;3643;52.460;13.322;2022-07-05T15:05:26;26.10;73.00
7204;DHT22;3643;52.460;13.322;2022-07-05T15:07:55;25.90;73.10
7204;DHT22;3643;52.460;13.322;2022-07-05T15:10:24;25.90;73.70
7204;DHT22;3643;52.460;13.322;2022-07-05T15:12:53;26.10;73.80
7204;DHT22;3643;52.460;13.322;2022-07-05T15:15:21;26.30;72.90
7204;DHT22;3643;52.460;13.322;2022-07-05T15:17:51;26.50;73.20
7204;DHT22;3643;52.460;13.322;2022-07-05T15:20:20;26.60;72.80
7204;DHT22;3643;52.460;13.322;2022-07-05T15:22:51;26.80;72.60
7204;DHT22;3643;52.460;13.322;2022-07-05T15:25:20;26.80;72.10
7204;DHT22;3643;52.460;13.322;2022-07-05T15:27:49;26.70;71.60
7204;DHT22;3643;52.460;13.322;2022-07-05T15:30:17;26.50;72.50
7204;DHT22;3643;52.460;13.322;2022-07-05T15:32:50;26.40;72.80
7204;DHT22;3643;52.460;13.322;2022-07-05T15:35:27;26.50;73.00
7204;DHT22;3643;52.460;13.322;2022-07-05T15:37:58;26.50;72.80
7204;DHT22;3643;52.460;13.322;2022-07-05T15:40:27;26.40;72.40
7204;DHT22;3643;52.460;13.322;2022-07-05T15:42:57;26.30;72.70
7204;DHT22;3643;52.460;13.322;2022-07-05T15:45:25;26.10;72.70
7204;DHT22;3643;52.460;13.322;2022-07-05T15:47:54;25.90;73.00
7204;DHT22;3643;52.460;13.322;2022-07-05T15:50:22;25.80;72.50
7204;DHT22;3643;52.460;13.322;2022-07-05T15:52:52;25.70;72.80
7204;DHT22;3643;52.460;13.322;2022-07-05T15:55:23;25.80;72.80
7204;DHT22;3643;52.460;13.322;2022-07-05T15:57:52;25.80;72.80
7204;DHT22;3643;52.460;13.322;2022-07-05T16:00:20;25.90;72.80
7204;DHT22;3643;52.460;13.322;2022-07-05T16:02:49;26.00;71.30
7204;DHT22;3643;52.460;13.322;2022-07-05T16:05:26;25.90;71.70
7204;DHT22;3643;52.460;13.322;2022-07-05T16:07:55;25.90;71.90
7204;DHT22;3643;52.460;13.322;2022-07-05T16:10:25;25.80;72.50
7204;DHT22;3643;52.460;13.322;2022-07-05T16:13:01;25.70;72.00
7204;DHT22;3643;52.460;13.322;2022-07-05T16:15:31;25.50;72.30
7204;DHT22;3643;52.460;13.322;2022-07-05T16:18:17;25.40;72.40